Time;durP1;ratioP1;P1;durP2;ratioP2;P2;SDS_P1;SDS_P2;PMS_P1;PMS_P2;Temp;Humidity;BMP_temperature;BMP_pressure;BME280_temperature;BME280_humidity;BME280_pressure;Samples;Min_cycle;Max_cycle;Signal;HPM_P1;HPM_P2
2022/10/17 00:00:51;;;;;;;3.03;2.50;;;17.20;1.00;;;;;;4972677;28;20573;-82
2022/10/17 00:03:19;;;;;;;3.70;2.70;;;17.20;1.00;;;;;;4976515;28;20450;-83
2022/10/17 00:05:48;;;;;;;2.27;2.17;;;17.00;1.00;;;;;;4965121;28;20537;-80
2022/10/17 00:08:18;;;;;;;3.03;2.70;;;16.90;1.00;;;;;;4969472;28;20557;-82
2022/10/17 00:10:55;;;;;;;2.87;2.77;;;16.70;1.00;;;;;;4970379;28;20471;-82
2022/10/17 00:13:23;;;;;;;3.07;2.87;;;16.50;24.20;;;;;;4970688;28;20528;-82
2022/10/17 00:15:53;;;;;;;3.60;3.30;;;16.40;99.90;;;;;;4968586;28;21168;-81
2022/10/17 00:18:21;;;;;;;2.93;2.73;;;16.30;1.00;;;;;;4968996;28;20462;-82
2022/10/17 00:20:50;;;;;;;2.80;2.60;;;16.20;1.00;;;;;;4971253;28;20510;-82
2022/10/17 00:23:18;;;;;;;3.30;3.00;;;16.10;5.50;;;;;;4965193;28;22538;-82
2022/10/17 00:25:46;;;;;;;3.30;3.10;;;16.10;86.00;;;;;;4963634;28;20483;-84
2022/10/17 00:28:16;;;;;;;3.00;2.90;;;16.00;1.00;;;;;;4966970;28;21128;-84
2022/10/17 00:30:44;;;;;;;3.43;3.23;;;16.00;99.90;;;;;;4964671;28;20572;-82
2022/10/17 00:33:13;;;;;;;3.30;3.20;;;15.90;99.90;;;;;;4974754;28;20512;-82
2022/10/17 00:35:41;;;;;;;3.17;2.97;;;15.90;99.90;;;;;;4967003;28;20453;-82
2022/10/17 00:38:09;;;;;;;5.40;3.10;;;15.90;99.90;;;;;;4964671;28;20524;-81
2022/10/17 00:40:37;;;;;;;2.90;2.70;;;15.80;99.90;;;;;;4959492;28;20477;-82
2022/10/17 00:43:11;;;;;;;3.03;2.93;;;15.70;99.90;;;;;;4970406;28;20544;-82
2022/10/17 00:45:39;;;;;;;3.20;2.90;;;15.60;99.90;;;;;;4961617;28;21150;-84
2022/10/17 00:48:11;;;;;;;4.00;3.80;;;15.70;99.90;;;;;;4966888;28;20462;-81
2022/10/17 00:50:44;;;;;;;4.20;3.63;;;15.60;99.90;;;;;;4965434;28;20560;-81
2022/10/17 00:53:12;;;;;;;3.40;3.10;;;15.50;99.90;;;;;;4969864;28;20449;-81
2022/10/17 00:55:48;;;;;;;4.07;3.60;;;15.60;99.90;;;;;;4969380;28;20453;-81
2022/10/17 00:58:17;;;;;;;3.00;2.90;;;15.50;99.90;;;;;;4960784;28;20524;-81
2022/10/17 01:00:47;;;;;;;3.27;3.07;;;15.50;99.90;;;;;;4967745;28;20523;-81
2022/10/17 01:03:15;;;;;;;3.23;3.03;;;15.60;99.90;;;;;;4970737;28;20563;-83
2022/10/17 01:05:45;;;;;;;3.10;2.77;;;15.70;99.90;;;;;;4968414;28;20495;-82
2022/10/17 01:08:13;;;;;;;3.83;3.10;;;15.70;99.90;;;;;;4966169;28;20460;-82
2022/10/17 01:10:53;;;;;;;3.03;2.83;;;15.60;99.90;;;;;;4970266;28;20495;-83
2022/10/17 01:13:26;;;;;;;3.10;2.90;;;15.60;99.90;;;;;;4964910;28;20523;-82
2022/10/17 01:16:05;;;;;;;2.97;2.87;;;15.60;99.90;;;;;;4965536;28;20452;-81
2022/10/17 01:18:42;;;;;;;6.60;3.30;;;15.50;99.90;;;;;;4969306;28;20459;-81
2022/10/17 01:21:33;;;;;;;3.37;3.07;;;15.60;99.90;;;;;;4966256;28;20459;-81
2022/10/17 01:24:27;;;;;;;3.77;2.90;;;15.50;99.90;;;;;;4963791;28;20496;-82
2022/10/17 01:27:14;;;;;;;5.80;3.40;;;15.50;99.90;;;;;;4962715;28;20476;-82
2022/10/17 01:29:59;;;;;;;2.93;2.83;;;15.40;99.90;;;;;;4953792;28;20480;-82
2022/10/17 01:32:35;;;;;;;2.50;2.37;;;15.40;1.00;;;;;;4966534;28;20449;-83
2022/10/17 01:35:10;;;;;;;3.10;2.90;;;15.40;99.90;;;;;;4970350;28;20471;-83
2022/10/17 01:37:45;;;;;;;2.93;2.67;;;15.70;99.90;;;;;;4968157;28;20471;-82
2022/10/17 01:40:20;;;;;;;5.03;2.87;;;15.80;56.40;;;;;;4970673;28;20842;-82
2022/10/17 01:42:56;;;;;;;4.40;2.90;;;16.10;99.90;;;;;;4964604;28;20477;-82
2022/10/17 01:45:31;;;;;;;3.30;3.10;;;16.20;99.90;;;;;;4968898;28;21042;-83
2022/10/17 01:48:07;;;;;;;4.60;3.00;;;16.00;99.90;;;;;;4968675;28;20573;-82
2022/10/17 01:50:39;;;;;;;3.10;3.00;;;16.00;1.00;;;;;;4967333;28;20484;-82
2022/10/17 01:53:12;;;;;;;2.97;2.77;;;15.90;1.00;;;;;;4969712;28;20471;-82
2022/10/17 01:55:42;;;;;;;3.43;3.13;;;15.80;99.90;;;;;;4950660;28;20492;-82
2022/10/17 01:58:14;;;;;;;2.97;2.80;;;15.70;66.80;;;;;;4962092;28;20889;-83
2022/10/17 02:00:45;;;;;;;10.63;9.30;;;15.80;1.00;;;;;;4959941;28;20493;-82
2022/10/17 02:03:18;;;;;;;7.00;4.50;;;16.00;99.90;;;;;;4969646;28;20493;-82
2022/10/17 02:05:46;;;;;;;6.77;6.07;;;15.90;99.90;;;;;;4969184;28;20456;-81
2022/10/17 02:08:24;;;;;;;7.33;6.00;;;15.60;1.00;;;;;;4969463;28;21279;-81
2022/10/17 02:10:58;;;;;;;5.97;5.47;;;15.50;99.90;;;;;;4963831;28;20581;-82
2022/10/17 02:13:36;;;;;;;4.77;4.23;;;15.40;34.30;;;;;;4957197;28;20492;-82
2022/10/17 02:16:26;;;;;;;3.90;3.60;;;15.20;99.90;;;;;;4964011;28;20547;-82
2022/10/17 02:19:16;;;;;;;5.00;4.60;;;15.20;99.90;;;;;;4960616;28;20489;-82
2022/10/17 02:21:49;;;;;;;5.00;4.33;;;15.10;99.90;;;;;;4962261;28;20453;-82
2022/10/17 02:24:26;;;;;;;4.20;3.90;;;15.10;99.90;;;;;;4969236;28;20994;-82
2022/10/17 02:27:01;;;;;;;6.27;4.60;;;15.10;99.90;;;;;;4968712;28;20567;-81
2022/10/17 02:29:34;;;;;;;5.33;4.40;;;15.10;99.90;;;;;;4962686;28;20568;-82
2022/10/17 02:32:06;;;;;;;5.20;4.47;;;15.00;99.90;;;;;;4965233;28;20559;-82
2022/10/17 02:34:41;;;;;;;4.57;4.17;;;14.90;1.00;;;;;;4969641;28;20455;-82
2022/10/17 02:37:12;;;;;;;8.63;4.60;;;14.90;1.00;;;;;;4965013;28;20472;-83
2022/10/17 02:39:42;;;;;;;4.47;4.07;;;14.90;1.00;;;;;;4966110;28;20499;-82
2022/10/17 02:42:12;;;;;;;4.03;3.70;;;14.80;1.00;;;;;;4960428;28;20827;-82
2022/10/17 02:44:43;;;;;;;7.30;3.67;;;14.80;1.00;;;;;;4969308;28;21420;-83
2022/10/17 02:47:18;;;;;;;3.67;3.33;;;14.70;1.00;;;;;;4959591;28;20469;-82
2022/10/17 02:49:51;;;;;;;3.70;3.40;;;14.80;1.00;;;;;;4950928;28;20479;-82
2022/10/17 02:52:27;;;;;;;4.00;3.70;;;14.80;1.00;;;;;;4964208;28;20453;-83
2022/10/17 02:55:01;;;;;;;3.77;3.23;;;14.80;1.00;;;;;;4967761;28;20451;-81
2022/10/17 02:57:34;;;;;;;3.53;3.33;;;14.80;1.00;;;;;;4960387;28;20570;-81
2022/10/17 03:00:05;;;;;;;3.33;3.10;;;14.70;1.00;;;;;;4964338;28;20490;-81
2022/10/17 03:02:39;;;;;;;3.53;3.33;;;14.70;1.00;;;;;;4969554;28;20569;-81
2022/10/17 03:05:10;;;;;;;3.30;3.00;;;14.80;1.00;;;;;;4965686;28;20448;-82
2022/10/17 03:07:38;;;;;;;5.77;2.90;;;14.80;1.00;;;;;;4948164;28;20507;-82
2022/10/17 03:10:07;;;;;;;6.10;3.33;;;14.80;1.00;;;;;;4960612;28;21049;-82
2022/10/17 03:12:35;;;;;;;3.30;3.10;;;14.90;1.00;;;;;;4968186;28;20465;-83
2022/10/17 03:15:04;;;;;;;3.57;3.37;;;14.80;1.00;;;;;;4954033;28;20549;-82
2022/10/17 03:17:32;;;;;;;3.63;3.43;;;14.80;1.00;;;;;;4971623;28;20546;-81
2022/10/17 03:20:00;;;;;;;3.33;3.13;;;14.70;1.00;;;;;;4947843;28;20526;-81
2022/10/17 03:22:30;;;;;;;3.37;3.07;;;14.60;1.00;;;;;;4963603;28;20482;-83
2022/10/17 03:24:58;;;;;;;3.30;3.00;;;14.60;1.00;;;;;;4958502;28;20450;-82
2022/10/17 03:27:26;;;;;;;3.37;3.10;;;14.60;1.00;;;;;;4961355;28;20601;-82
2022/10/17 03:29:55;;;;;;;6.17;3.20;;;14.40;1.00;;;;;;4950906;28;20479;-81
2022/10/17 03:32:23;;;;;;;3.77;3.30;;;14.40;1.00;;;;;;4962766;28;21413;-80
2022/10/17 03:34:51;;;;;;;3.33;3.03;;;14.40;1.00;;;;;;4969041;28;20466;-81
2022/10/17 03:37:19;;;;;;;4.73;3.20;;;14.50;1.00;;;;;;4951501;28;20451;-81
2022/10/17 03:39:48;;;;;;;3.33;3.10;;;14.50;1.00;;;;;;4971574;28;20533;-81
2022/10/17 03:42:16;;;;;;;4.27;3.90;;;14.40;1.00;;;;;;4964309;28;21048;-82
2022/10/17 03:44:44;;;;;;;3.73;3.53;;;14.40;1.00;;;;;;4964989;28;20601;-82
2022/10/17 03:47:13;;;;;;;3.10;3.00;;;14.40;1.00;;;;;;4970661;28;20486;-81
2022/10/17 03:49:41;;;;;;;2.93;2.80;;;14.40;1.00;;;;;;4952239;28;20510;-82
2022/10/17 03:52:11;;;;;;;3.30;3.20;;;14.50;1.00;;;;;;4969841;28;20462;-82
2022/10/17 03:54:39;;;;;;;4.00;3.80;;;14.80;1.00;;;;;;4970865;28;21004;-82
2022/10/17 03:57:09;;;;;;;3.50;3.30;;;14.90;1.00;;;;;;4950678;28;20479;-82
2022/10/17 03:59:37;;;;;;;3.53;3.33;;;14.90;99.90;;;;;;4959928;28;20529;-80
2022/10/17 04:02:05;;;;;;;3.13;2.93;;;15.20;99.90;;;;;;4962916;28;20599;-83
2022/10/17 04:04:33;;;;;;;3.30;3.10;;;15.50;17.30;;;;;;4974515;28;20463;-81
2022/10/17 04:07:01;;;;;;;3.83;3.43;;;15.70;99.90;;;;;;4968814;28;20494;-81
2022/10/17 04:09:29;;;;;;;3.70;3.50;;;15.80;1.00;;;;;;4955913;28;20571;-81
2022/10/17 04:11:57;;;;;;;4.20;3.77;;;15.70;99.90;;;;;;4953356;28;20459;-81
2022/10/17 04:14:27;;;;;;;3.80;3.60;;;15.70;99.90;;;;;;4967975;28;20616;-80
2022/10/17 04:16:55;;;;;;;4.53;4.20;;;15.60;99.90;;;;;;4969405;28;20515;-81
2022/10/17 04:19:25;;;;;;;3.77;3.57;;;15.70;99.90;;;;;;4963671;28;20480;-81
2022/10/17 04:21:53;;;;;;;3.80;3.50;;;15.50;1.00;;;;;;4961250;28;20575;-81
2022/10/17 04:24:21;;;;;;;5.03;4.73;;;15.20;74.60;;;;;;4957614;28;21081;-81
2022/10/17 04:26:50;;;;;;;4.10;3.70;;;15.10;99.90;;;;;;4962613;28;21493;-81
2022/10/17 04:29:18;;;;;;;4.40;3.50;;;15.20;99.90;;;;;;4960879;28;21254;-80
2022/10/17 04:31:48;;;;;;;3.50;3.40;;;15.10;99.90;;;;;;4954978;28;20820;-80
2022/10/17 04:34:16;;;;;;;5.70;4.77;;;15.00;99.90;;;;;;4967358;28;20457;-80
2022/10/17 04:36:45;;;;;;;5.90;5.40;;;15.20;99.90;;;;;;4967014;28;20463;-83
2022/10/17 04:39:14;;;;;;;6.60;6.10;;;15.20;99.90;;;;;;4951865;28;20541;-83
2022/10/17 04:41:42;;;;;;;5.23;4.87;;;15.00;99.90;;;;;;4964804;28;20559;-83
2022/10/17 04:44:10;;;;;;;9.20;8.30;;;14.90;99.90;;;;;;4960899;28;21065;-84
2022/10/17 04:46:38;;;;;;;6.40;6.00;;;14.70;99.90;;;;;;4950287;28;20467;-81
2022/10/17 04:49:08;;;;;;;10.30;8.40;;;14.70;99.90;;;;;;4971593;28;21002;-84
2022/10/17 04:51:38;;;;;;;12.80;10.03;;;14.80;99.90;;;;;;4968655;28;20518;-83
2022/10/17 04:54:07;;;;;;;5.90;5.50;;;14.80;1.00;;;;;;4964607;28;20492;-83
2022/10/17 04:56:35;;;;;;;4.63;4.23;;;14.90;1.00;;;;;;4968532;28;20860;-83
2022/10/17 04:59:03;;;;;;;5.80;5.40;;;15.00;99.90;;;;;;4966928;28;20568;-83
2022/10/17 05:01:31;;;;;;;4.90;4.47;;;15.00;99.90;;;;;;4968074;28;20869;-83
2022/10/17 05:03:59;;;;;;;5.10;4.67;;;15.00;99.90;;;;;;4957896;28;20467;-82
2022/10/17 05:06:28;;;;;;;5.40;4.13;;;14.90;99.90;;;;;;4965335;28;20555;-83
2022/10/17 05:08:58;;;;;;;4.47;4.17;;;15.00;1.00;;;;;;4964056;28;20492;-81
2022/10/17 05:11:27;;;;;;;4.43;4.13;;;15.10;99.90;;;;;;4966273;28;20465;-82
2022/10/17 05:13:57;;;;;;;3.90;3.60;;;15.30;99.90;;;;;;4972655;28;20487;-83
2022/10/17 05:16:26;;;;;;;4.10;3.80;;;15.50;1.00;;;;;;4963752;28;20461;-83
2022/10/17 05:18:56;;;;;;;3.80;3.70;;;15.60;1.00;;;;;;4946786;28;20558;-82
2022/10/17 05:21:26;;;;;;;4.67;4.37;;;15.60;99.90;;;;;;4964750;28;20467;-82
2022/10/17 05:23:56;;;;;;;4.80;3.90;;;15.60;1.00;;;;;;4967492;28;20479;-84
2022/10/17 05:26:25;;;;;;;4.50;4.30;;;15.60;1.00;;;;;;4972322;28;20504;-83
2022/10/17 05:28:53;;;;;;;4.70;4.50;;;15.60;1.00;;;;;;4963336;28;20608;-83
2022/10/17 05:31:21;;;;;;;4.10;3.80;;;15.50;1.00;;;;;;4967622;28;20559;-84
2022/10/17 05:33:49;;;;;;;4.10;3.73;;;15.50;99.90;;;;;;4962459;28;20578;-84
2022/10/17 05:36:18;;;;;;;4.70;4.30;;;15.30;99.90;;;;;;4967289;28;20831;-83
2022/10/17 05:38:49;;;;;;;5.47;5.07;;;15.20;99.90;;;;;;4967270;28;20892;-83
2022/10/17 05:41:20;;;;;;;4.57;4.13;;;15.10;99.90;;;;;;4964834;28;20477;-84
2022/10/17 05:43:49;;;;;;;4.30;3.87;;;15.00;99.90;;;;;;4952685;28;20470;-84
2022/10/17 05:46:17;;;;;;;4.90;4.37;;;14.90;1.00;;;;;;4968398;28;20462;-83
2022/10/17 05:48:45;;;;;;;4.70;4.17;;;14.90;1.00;;;;;;4967840;28;20579;-83
2022/10/17 05:51:13;;;;;;;4.27;4.07;;;14.80;1.00;;;;;;4963786;28;20492;-83
2022/10/17 05:53:42;;;;;;;4.30;4.00;;;14.70;1.00;;;;;;4967353;28;20887;-85
2022/10/17 05:56:12;;;;;;;7.83;4.30;;;14.70;1.00;;;;;;4964863;28;20496;-83
2022/10/17 05:58:44;;;;;;;4.40;4.10;;;14.70;1.00;;;;;;4950967;28;20492;-84
2022/10/17 06:01:18;;;;;;;4.97;4.77;;;14.70;1.00;;;;;;4962914;28;20459;-84
2022/10/17 06:03:46;;;;;;;4.70;4.30;;;14.80;1.00;;;;;;4968666;28;20455;-84
2022/10/17 06:06:15;;;;;;;5.10;4.70;;;14.70;1.00;;;;;;4968486;28;20894;-83
2022/10/17 06:08:44;;;;;;;5.20;4.47;;;14.70;1.00;;;;;;4971004;28;20500;-84
2022/10/17 06:11:13;;;;;;;4.33;4.13;;;14.80;1.00;;;;;;4961855;28;20463;-80
2022/10/17 06:13:42;;;;;;;5.33;5.00;;;14.70;1.00;;;;;;4963370;28;21149;-82
2022/10/17 06:16:10;;;;;;;4.80;4.33;;;14.70;1.00;;;;;;4957533;28;21092;-82
2022/10/17 06:18:38;;;;;;;4.57;4.37;;;14.60;1.00;;;;;;4964394;28;20836;-81
2022/10/17 06:21:09;;;;;;;4.60;4.40;;;14.50;1.00;;;;;;4961694;28;20451;-81
2022/10/17 06:23:38;;;;;;;4.83;4.53;;;14.50;1.00;;;;;;4959903;28;20468;-81
2022/10/17 06:26:06;;;;;;;4.60;4.30;;;14.60;1.00;;;;;;4966456;28;20897;-81
2022/10/17 06:28:35;;;;;;;4.73;4.53;;;14.60;1.00;;;;;;4967493;28;20490;-80
2022/10/17 06:31:09;;;;;;;5.27;4.87;;;14.40;1.00;;;;;;4970486;28;20546;-81
2022/10/17 06:33:37;;;;;;;5.40;4.97;;;14.40;1.00;;;;;;4969452;28;20476;-81
2022/10/17 06:36:07;;;;;;;6.00;5.30;;;14.50;1.00;;;;;;4970108;28;20517;-81
2022/10/17 06:38:35;;;;;;;5.53;5.03;;;14.50;1.00;;;;;;4970909;28;20495;-80
2022/10/17 06:41:07;;;;;;;5.87;5.47;;;14.50;1.00;;;;;;4970005;28;21195;-81
2022/10/17 06:43:35;;;;;;;5.50;5.10;;;14.40;1.00;;;;;;4970373;28;20510;-81
2022/10/17 06:46:03;;;;;;;5.30;5.00;;;14.40;1.00;;;;;;4955964;28;20871;-81
2022/10/17 06:48:33;;;;;;;6.20;5.70;;;14.40;1.00;;;;;;4968864;28;21090;-81
2022/10/17 06:51:03;;;;;;;6.30;5.60;;;14.50;1.00;;;;;;4968453;28;20513;-81
2022/10/17 06:53:33;;;;;;;6.00;5.60;;;14.50;1.00;;;;;;4968358;28;20452;-81
2022/10/17 06:56:02;;;;;;;5.83;5.00;;;14.50;1.00;;;;;;4970430;28;20455;-81
2022/10/17 06:58:33;;;;;;;6.20;5.23;;;14.60;1.00;;;;;;4969819;28;20452;-81
2022/10/17 07:01:02;;;;;;;10.93;5.87;;;14.60;1.00;;;;;;4962559;28;20556;-81
2022/10/17 07:03:32;;;;;;;9.20;6.93;;;14.70;1.00;;;;;;4966930;28;20519;-82
2022/10/17 07:06:00;;;;;;;7.80;4.97;;;14.80;1.00;;;;;;4967987;28;21081;-80
2022/10/17 07:08:28;;;;;;;5.17;4.87;;;14.80;1.00;;;;;;4970006;28;20531;-81
2022/10/17 07:10:57;;;;;;;5.30;4.83;;;14.90;1.00;;;;;;4973195;28;20939;-81
2022/10/17 07:13:25;;;;;;;6.60;5.50;;;15.00;1.00;;;;;;4974384;28;20521;-80
2022/10/17 07:15:56;;;;;;;5.70;5.30;;;15.10;99.90;;;;;;4956779;28;20556;-82
2022/10/17 07:18:25;;;;;;;5.80;5.40;;;15.20;99.90;;;;;;4949733;28;20473;-82
2022/10/17 07:20:55;;;;;;;9.23;6.60;;;15.30;1.00;;;;;;4975821;28;20546;-82
2022/10/17 07:23:24;;;;;;;6.27;5.60;;;15.50;1.00;;;;;;4971477;28;20437;-82
2022/10/17 07:25:53;;;;;;;5.70;5.40;;;15.90;99.90;;;;;;4975499;28;20980;-82
2022/10/17 07:28:21;;;;;;;6.00;5.50;;;16.10;1.00;;;;;;4971999;28;20545;-82
2022/10/17 07:30:49;;;;;;;5.80;5.40;;;16.40;1.00;;;;;;4972860;28;20571;-82
2022/10/17 07:33:21;;;;;;;5.50;5.30;;;16.70;1.00;;;;;;4973655;28;20451;-83
2022/10/17 07:35:51;;;;;;;6.63;6.13;;;17.00;99.90;;;;;;4962811;28;20457;-82
2022/10/17 07:38:20;;;;;;;6.43;5.90;;;17.30;1.00;;;;;;4971883;28;21137;-83
2022/10/17 07:40:54;;;;;;;7.40;6.77;;;17.60;1.00;;;;;;4970022;28;21439;-83
2022/10/17 07:43:23;;;;;;;6.20;5.80;;;17.80;99.90;;;;;;4965594;28;20463;-82
2022/10/17 07:45:52;;;;;;;5.90;5.50;;;18.00;99.90;;;;;;4971733;28;20517;-83
2022/10/17 07:48:21;;;;;;;7.67;7.07;;;18.40;1.00;;;;;;4974842;28;20879;-82
2022/10/17 07:50:50;;;;;;;6.07;5.77;;;18.50;1.00;;;;;;4974596;28;20483;-83
2022/10/17 07:53:19;;;;;;;5.60;5.40;;;18.80;1.00;;;;;;4972317;28;20550;-84
2022/10/17 07:55:48;;;;;;;5.57;5.37;;;19.10;99.90;;;;;;4971126;28;20534;-83
2022/10/17 07:58:16;;;;;;;5.70;5.40;;;19.40;99.90;;;;;;4974063;28;20470;-85
2022/10/17 08:00:47;;;;;;;5.40;5.00;;;19.90;36.90;;;;;;4974169;28;20545;-84
2022/10/17 08:03:15;;;;;;;6.63;4.70;;;20.20;1.00;;;;;;4960273;28;20470;-83
2022/10/17 08:05:43;;;;;;;5.37;4.70;;;20.50;1.00;;;;;;4971149;28;20459;-83
2022/10/17 08:08:11;;;;;;;4.77;4.57;;;20.70;1.00;;;;;;4972352;28;20443;-83
2022/10/17 08:10:41;;;;;;;4.40;4.10;;;21.10;1.00;;;;;;4971378;28;20543;-82
2022/10/17 08:13:09;;;;;;;4.33;4.10;;;21.50;1.00;;;;;;4975635;28;20975;-83
2022/10/17 08:15:38;;;;;;;4.10;3.77;;;22.10;1.00;;;;;;4974306;28;20477;-83
2022/10/17 08:18:07;;;;;;;4.23;4.03;;;22.60;99.90;;;;;;4974611;28;20513;-85
2022/10/17 08:20:35;;;;;;;4.63;4.33;;;23.40;99.90;;;;;;4974823;28;20545;-84
2022/10/17 08:23:03;;;;;;;4.40;4.10;;;23.60;99.90;;;;;;4974424;28;20460;-84
2022/10/17 08:25:31;;;;;;;4.37;4.17;;;23.80;99.90;;;;;;4972974;28;20890;-83
2022/10/17 08:28:01;;;;;;;4.30;4.10;;;24.00;99.90;;;;;;4973796;28;20496;-83
2022/10/17 08:30:30;;;;;;;3.80;3.70;;;24.40;99.90;;;;;;4973629;28;20491;-83
2022/10/17 08:32:58;;;;;;;4.43;3.67;;;24.70;99.90;;;;;;4974560;28;20447;-84
2022/10/17 08:35:26;;;;;;;5.70;3.53;;;25.50;99.90;;;;;;4970175;28;20473;-83
2022/10/17 08:37:54;;;;;;;3.67;3.57;;;26.00;99.90;;;;;;4970733;28;20462;-85
2022/10/17 08:40:25;;;;;;;3.60;3.47;;;26.50;99.90;;;;;;4971832;28;20474;-84
2022/10/17 08:43:33;;;;;;;4.20;3.40;;;26.80;99.90;;;;;;4973805;28;21018;-84
2022/10/17 08:46:06;;;;;;;3.00;2.80;;;27.50;99.90;;;;;;4968228;28;20452;-84
2022/10/17 08:48:40;;;;;;;3.50;3.30;;;28.00;99.90;;;;;;4958544;28;20517;-83
2022/10/17 08:51:17;;;;;;;3.40;3.10;;;28.70;99.90;;;;;;4973729;28;20839;-84
2022/10/17 08:53:49;;;;;;;3.20;3.00;;;28.80;99.90;;;;;;4950764;28;20562;-84
2022/10/17 08:56:20;;;;;;;2.70;2.57;;;29.20;99.90;;;;;;4974005;28;20495;-84
2022/10/17 08:59:12;;;;;;;3.10;2.80;;;29.90;99.90;;;;;;4972069;28;20494;-84
2022/10/17 09:01:48;;;;;;;3.10;2.90;;;29.50;99.90;;;;;;4970301;28;20463;-83
2022/10/17 09:04:42;;;;;;;2.80;2.17;;;29.30;99.90;;;;;;4971335;28;20487;-83
2022/10/17 09:07:22;;;;;;;2.67;2.30;;;29.00;99.90;;;;;;4974360;28;20533;-86
2022/10/17 09:09:59;;;;;;;2.30;2.20;;;29.00;99.90;;;;;;4977004;28;21026;-83
2022/10/17 09:12:37;;;;;;;2.23;2.13;;;28.80;99.90;;;;;;4974105;28;20483;-83
2022/10/17 09:18:03;;;;;;;2.10;2.00;;;29.60;99.90;;;;;;5150470;27;20303;-85
2022/10/17 09:20:34;;;;;;;6.27;2.00;;;29.40;99.90;;;;;;5100452;27;20468;-84
2022/10/17 09:23:06;;;;;;;2.33;2.17;;;29.50;99.90;;;;;;5105411;28;20491;-83
2022/10/17 09:25:42;;;;;;;2.90;1.87;;;29.60;99.90;;;;;;5098700;28;20541;-83
2022/10/17 09:28:17;;;;;;;2.07;1.97;;;29.20;99.90;;;;;;5099526;28;20473;-83
2022/10/17 09:30:47;;;;;;;2.33;2.07;;;28.80;99.90;;;;;;5101491;28;20491;-83
2022/10/17 09:33:18;;;;;;;1.70;1.60;;;28.20;99.90;;;;;;5106987;28;20441;-83
2022/10/17 09:36:12;;;;;;;1.80;1.70;;;28.20;99.90;;;;;;5104406;28;21036;-83
2022/10/17 09:38:44;;;;;;;1.50;1.40;;;28.20;99.90;;;;;;5107079;28;20530;-84
2022/10/17 09:41:17;;;;;;;1.73;1.63;;;27.90;99.90;;;;;;5107944;28;20448;-84
2022/10/17 09:44:15;;;;;;;2.47;1.80;;;27.50;99.90;;;;;;5100074;28;20536;-83
2022/10/17 09:46:52;;;;;;;1.80;1.70;;;27.60;99.90;;;;;;5104114;28;20480;-84
2022/10/17 09:49:29;;;;;;;2.43;1.67;;;27.70;99.90;;;;;;5108236;28;21014;-84
2022/10/17 09:51:58;;;;;;;1.50;1.40;;;28.10;99.90;;;;;;5109778;28;20480;-85
2022/10/17 09:54:41;;;;;;;3.80;1.60;;;28.20;99.90;;;;;;5113946;28;20440;-85
2022/10/17 09:57:12;;;;;;;2.60;1.60;;;28.70;99.90;;;;;;5097679;28;20452;-84
2022/10/17 09:59:41;;;;;;;2.03;1.70;;;28.80;99.90;;;;;;5101872;28;20537;-83
2022/10/17 10:02:19;;;;;;;1.87;1.50;;;29.00;99.90;;;;;;5103946;28;20496;-84
2022/10/17 10:04:57;;;;;;;2.00;1.90;;;29.70;99.90;;;;;;5107578;28;20437;-84
2022/10/17 10:07:36;;;;;;;2.17;1.97;;;30.90;99.90;;;;;;5109404;28;20449;-84
2022/10/17 10:10:07;;;;;;;2.80;1.67;;;31.70;99.90;;;;;;5102104;28;20972;-83
2022/10/17 10:12:37;;;;;;;2.27;2.17;;;31.80;99.90;;;;;;5106407;28;20449;-84
2022/10/17 10:15:32;;;;;;;1.73;1.63;;;31.90;99.90;;;;;;5100450;28;20498;-82
2022/10/17 10:18:00;;;;;;;1.70;1.60;;;31.80;99.90;;;;;;5097489;28;20469;-84
2022/10/17 10:20:33;;;;;;;2.13;1.60;;;31.00;99.90;;;;;;5109071;28;20465;-84
2022/10/17 10:23:17;;;;;;;1.73;1.40;;;31.00;99.90;;;;;;5103096;28;20468;-83
2022/10/17 10:25:56;;;;;;;1.80;1.70;;;31.00;99.90;;;;;;5102069;28;20457;-83
2022/10/17 10:28:30;;;;;;;1.73;1.60;;;31.30;99.90;;;;;;5096170;28;20477;-82
2022/10/17 10:31:00;;;;;;;3.00;1.80;;;32.20;99.90;;;;;;5085268;28;20478;-83
2022/10/17 10:33:30;;;;;;;1.53;1.43;;;33.10;99.90;;;;;;5085704;28;20454;-80
2022/10/17 10:36:02;;;;;;;3.77;1.90;;;34.00;99.90;;;;;;5089029;28;21163;-83
2022/10/17 10:38:32;;;;;;;2.90;1.60;;;34.30;99.90;;;;;;5088290;28;20481;-83
2022/10/17 10:41:04;;;;;;;1.70;1.60;;;34.00;99.90;;;;;;5085632;28;20482;-83
2022/10/17 10:43:36;;;;;;;1.53;1.43;;;34.30;99.90;;;;;;5090667;28;20453;-82
2022/10/17 10:46:15;;;;;;;2.93;1.60;;;34.40;99.90;;;;;;5092548;28;20446;-84
2022/10/17 10:48:52;;;;;;;2.80;1.60;;;33.90;99.90;;;;;;5088948;28;20454;-83
2022/10/17 10:51:29;;;;;;;1.70;1.60;;;34.60;99.90;;;;;;5089037;28;20454;-83
2022/10/17 10:54:03;;;;;;;1.53;1.43;;;35.00;99.90;;;;;;5093423;28;20457;-83
2022/10/17 10:56:37;;;;;;;2.40;1.60;;;34.00;99.90;;;;;;5080034;28;20454;-83
2022/10/17 10:59:17;;;;;;;1.30;1.20;;;34.10;99.90;;;;;;5090395;28;20976;-83
2022/10/17 11:01:50;;;;;;;1.50;1.40;;;34.80;99.90;;;;;;5094520;28;20850;-83
2022/10/17 11:04:27;;;;;;;1.53;1.43;;;34.60;99.90;;;;;;5090033;28;20453;-83
2022/10/17 11:07:03;;;;;;;3.33;1.53;;;33.70;99.90;;;;;;5086638;28;20503;-83
2022/10/17 11:09:46;;;;;;;2.53;1.27;;;35.10;99.90;;;;;;5086935;28;20477;-83
2022/10/17 11:12:19;;;;;;;1.73;1.63;;;34.60;99.90;;;;;;5087920;28;20515;-83
2022/10/17 11:14:53;;;;;;;6.50;1.60;;;31.20;99.90;;;;;;5087150;28;20482;-83
2022/10/17 11:17:30;;;;;;;2.23;1.60;;;29.60;99.90;;;;;;5089378;28;20476;-83
2022/10/17 11:20:21;;;;;;;2.20;1.50;;;28.50;99.90;;;;;;5087820;28;20505;-83
2022/10/17 11:22:57;;;;;;;1.77;1.50;;;28.00;99.90;;;;;;5090776;28;20587;-82
2022/10/17 11:25:33;;;;;;;8.53;1.87;;;27.70;99.90;;;;;;5085496;28;20554;-83
2022/10/17 11:28:03;;;;;;;1.40;1.30;;;27.60;99.90;;;;;;5086267;28;20499;-82
2022/10/17 11:30:42;;;;;;;2.03;1.50;;;27.50;99.90;;;;;;5089867;28;20497;-83
2022/10/17 11:33:15;;;;;;;1.87;1.73;;;27.40;99.90;;;;;;5086594;28;20457;-84
2022/10/17 11:35:47;;;;;;;1.60;1.50;;;27.30;99.90;;;;;;5088667;28;21160;-84
2022/10/17 11:38:21;;;;;;;6.87;1.70;;;27.10;99.90;;;;;;5089311;28;20474;-82
2022/10/17 11:40:51;;;;;;;4.27;1.47;;;27.10;99.90;;;;;;5083894;28;20481;-81
2022/10/17 11:43:30;;;;;;;3.97;1.70;;;27.20;99.90;;;;;;5086934;28;20519;-86
2022/10/17 11:46:03;;;;;;;1.67;1.47;;;27.10;99.90;;;;;;5086343;28;21041;-84
2022/10/17 11:48:37;;;;;;;2.70;1.30;;;27.20;99.90;;;;;;5088827;28;20457;-80
2022/10/17 11:51:15;;;;;;;1.93;1.13;;;27.20;99.90;;;;;;5085641;28;20457;-83
2022/10/17 11:54:08;;;;;;;4.17;1.57;;;27.10;99.90;;;;;;5088624;28;20464;-82
2022/10/17 11:56:45;;;;;;;3.37;1.70;;;27.10;99.90;;;;;;5092231;28;20470;-83
2022/10/17 11:59:41;;;;;;;4.47;1.60;;;27.00;99.90;;;;;;5086651;28;20513;-79
2022/10/17 12:02:16;;;;;;;2.30;1.30;;;27.00;99.90;;;;;;5078144;28;20450;-79
2022/10/17 12:04:53;;;;;;;1.50;1.40;;;26.90;99.90;;;;;;5086508;28;20485;-78
2022/10/17 12:07:29;;;;;;;4.50;1.70;;;26.90;99.90;;;;;;5080461;28;20445;-78
2022/10/17 12:10:07;;;;;;;3.30;2.00;;;26.70;99.90;;;;;;5084241;28;20519;-78
2022/10/17 12:12:37;;;;;;;3.10;1.40;;;26.70;99.90;;;;;;5085152;28;20457;-79
2022/10/17 12:15:27;;;;;;;4.23;1.63;;;26.70;99.90;;;;;;5084963;28;20453;-78
2022/10/17 12:17:59;;;;;;;4.20;1.70;;;26.70;99.90;;;;;;5078785;28;21010;-80
2022/10/17 12:20:33;;;;;;;3.60;2.00;;;26.80;99.90;;;;;;5082280;28;21069;-79
2022/10/17 12:23:27;;;;;;;3.10;1.80;;;26.50;99.90;;;;;;5081105;28;22298;-79
2022/10/17 12:26:00;;;;;;;2.50;1.43;;;26.60;99.90;;;;;;5080589;28;20529;-79
2022/10/17 12:28:33;;;;;;;1.90;1.40;;;26.60;99.90;;;;;;5079204;28;20488;-78
2022/10/17 12:31:05;;;;;;;1.90;1.50;;;26.50;99.90;;;;;;5080830;28;20569;-78
2022/10/17 12:33:37;;;;;;;2.47;1.60;;;26.50;99.90;;;;;;5080693;28;20504;-79
2022/10/17 12:36:45;;;;;;;4.87;1.50;;;26.50;99.90;;;;;;5083606;28;20454;-79
2022/10/17 12:39:52;;;;;;;1.37;1.20;;;26.40;99.90;;;;;;5080170;28;21019;-78
2022/10/17 12:42:47;;;;;;;1.73;1.40;;;26.40;99.90;;;;;;5086978;28;20552;-81
2022/10/17 12:45:50;;;;;;;2.60;1.53;;;26.40;99.90;;;;;;5088024;28;21139;-78
2022/10/17 12:48:55;;;;;;;3.50;1.50;;;26.40;99.90;;;;;;5078981;28;20825;-79
2022/10/17 12:51:24;;;;;;;2.50;1.10;;;26.40;99.90;;;;;;5081858;28;20503;-80
2022/10/17 12:54:12;;;;;;;2.73;1.40;;;26.40;99.90;;;;;;5084578;28;20464;-79
2022/10/17 12:56:41;;;;;;;2.30;1.30;;;26.40;99.90;;;;;;5084303;28;21000;-81
2022/10/17 12:59:16;;;;;;;1.50;1.40;;;26.30;99.90;;;;;;5079018;28;20528;-78
2022/10/17 13:01:46;;;;;;;1.60;1.50;;;26.30;99.90;;;;;;5076233;28;20460;-79
2022/10/17 13:04:15;;;;;;;1.97;1.30;;;26.20;99.90;;;;;;5079547;28;20462;-77
2022/10/17 13:06:47;;;;;;;1.47;1.30;;;26.20;99.90;;;;;;5081345;28;20514;-80
2022/10/17 13:09:25;;;;;;;2.00;1.77;;;26.20;99.90;;;;;;5078588;28;20778;-79
2022/10/17 13:11:54;;;;;;;1.60;1.50;;;26.20;99.90;;;;;;5080494;28;20544;-79
2022/10/17 13:14:25;;;;;;;2.43;1.60;;;26.20;99.90;;;;;;5081431;28;20477;-79
2022/10/17 13:16:55;;;;;;;4.20;1.50;;;26.20;99.90;;;;;;5087518;28;20549;-78
2022/10/17 13:19:25;;;;;;;1.50;1.40;;;26.10;99.90;;;;;;5078908;28;20564;-79
2022/10/17 13:21:57;;;;;;;1.23;1.20;;;26.20;99.90;;;;;;5081269;28;20467;-80